Aumsville, Oregon
Current Conditions -  °F | °C
As of 4:16 AM on Thursday 23 Oct 2014 (Local Time) from KSLE Reporting Station
Moderate Rain Moderate Rain  
Wind Chill: 13°   Ceiling: 2700
Heat Index: 13°   Visibility: 3mi
Dew Point: 12°   Wind: 6mph
Humidity: 93%   Direction: 240°WSW
Pressure: 29.77"   Gusts: NA
Location:  44.84°N, 122.87°W
Report Text: KSLE 231116Z AUTO 24005KT 3SM RA BR FEW006 BKN027 OVC039 13/12 A2977 RMK AO2 P0007 T01280117
Loading
Personal Weather Stations






























Interactive Weather Map
Tropical Storm Tracking
New forecast layout! Learn more

10-Day Weather Forecast

Advertisements
Track Severe Weather on mobile